Time;durP1;ratioP1;P1;durP2;ratioP2;P2;SDS_P1;SDS_P2;PMS_P1;PMS_P2;Temp;Humidity;BMP_temperature;BMP_pressure;BME280_temperature;BME280_humidity;BME280_pressure;Samples;Min_cycle;Max_cycle;Signal;HPM_P1;HPM_P2
2021/12/15 00:02:02;;;;;;;86.70;27.70;;;8.70;99.90;;;;;;4844952;29;20114;-86
2021/12/15 00:04:28;;;;;;;87.18;26.30;;;8.80;99.90;;;;;;4844969;29;20080;-87
2021/12/15 00:06:55;;;;;;;82.85;25.80;;;8.80;99.90;;;;;;4844466;29;20136;-86
2021/12/15 00:09:21;;;;;;;75.55;24.27;;;8.80;99.90;;;;;;4861058;29;20046;-86
2021/12/15 00:11:47;;;;;;;88.32;25.15;;;8.80;99.90;;;;;;4844436;29;20056;-86
2021/12/15 00:14:17;;;;;;;101.95;28.10;;;8.80;99.90;;;;;;4844796;29;20049;-86
2021/12/15 00:16:43;;;;;;;84.93;25.25;;;8.80;99.90;;;;;;4844552;29;20046;-86
2021/12/15 00:19:09;;;;;;;91.97;25.42;;;8.80;99.90;;;;;;4844746;29;20057;-86
2021/12/15 00:21:36;;;;;;;92.15;24.83;;;8.70;99.90;;;;;;4844335;29;20113;-86
2021/12/15 00:24:04;;;;;;;81.40;24.05;;;8.80;99.90;;;;;;4845033;29;20445;-86
2021/12/15 00:26:30;;;;;;;75.30;25.75;;;8.80;99.90;;;;;;4844629;29;20565;-86
2021/12/15 00:28:56;;;;;;;90.90;26.05;;;8.80;99.90;;;;;;4844405;29;20057;-86
2021/12/15 00:31:23;;;;;;;79.40;25.83;;;8.80;99.90;;;;;;4844499;29;20054;-86
2021/12/15 00:33:49;;;;;;;84.07;25.67;;;8.80;99.90;;;;;;4847358;29;20112;-86
2021/12/15 00:36:15;;;;;;;86.03;25.95;;;8.80;99.90;;;;;;4848049;29;20081;-86
2021/12/15 00:38:42;;;;;;;89.63;27.40;;;8.80;99.90;;;;;;4847798;29;20069;-86
2021/12/15 00:41:08;;;;;;;90.70;27.17;;;8.80;99.90;;;;;;4848256;29;20057;-86
2021/12/15 00:43:35;;;;;;;102.30;29.00;;;8.80;99.90;;;;;;4848197;29;20049;-86
2021/12/15 00:46:01;;;;;;;83.35;26.90;;;8.80;99.90;;;;;;4847692;29;20393;-86
2021/12/15 00:48:27;;;;;;;91.68;25.98;;;8.80;99.90;;;;;;4847527;29;20162;-86
2021/12/15 00:50:54;;;;;;;81.30;25.63;;;8.80;99.90;;;;;;4848049;29;20045;-86
2021/12/15 00:53:20;;;;;;;93.65;25.67;;;8.80;99.90;;;;;;4847575;29;20501;-86
2021/12/15 00:55:46;;;;;;;84.53;26.30;;;8.80;99.90;;;;;;4847818;29;20053;-86
2021/12/15 00:58:12;;;;;;;89.57;27.33;;;8.80;99.90;;;;;;4847535;29;20136;-86
2021/12/15 01:00:53;;;;;;;90.70;26.60;;;8.80;99.90;;;;;;4847555;29;20109;-86
2021/12/15 01:03:19;;;;;;;88.40;26.83;;;8.80;99.90;;;;;;4847991;29;20075;-86
2021/12/15 01:05:50;;;;;;;90.18;26.85;;;8.80;99.90;;;;;;4847277;29;20128;-86
2021/12/15 01:08:23;;;;;;;79.03;26.50;;;8.80;99.90;;;;;;4847306;29;20045;-86
2021/12/15 01:22:01;;;;;;;78.85;24.73;;;8.90;99.90;;;;;;4863661;29;20569;-87
2021/12/15 01:24:27;;;;;;;75.82;25.17;;;8.90;99.90;;;;;;4862432;29;20045;-86
2021/12/15 01:26:53;;;;;;;72.18;25.67;;;8.80;99.90;;;;;;4847326;29;20049;-86
2021/12/15 01:29:19;;;;;;;89.68;26.50;;;8.90;99.90;;;;;;4847033;29;20045;-86
2021/12/15 01:31:44;;;;;;;75.13;24.70;;;8.90;99.90;;;;;;4863636;29;20049;-86
2021/12/15 01:34:10;;;;;;;72.93;23.40;;;8.90;99.90;;;;;;4846748;29;20466;-86
2021/12/15 01:36:36;;;;;;;86.78;24.50;;;8.80;99.90;;;;;;4846821;29;20049;-86
2021/12/15 01:39:03;;;;;;;72.28;24.27;;;8.90;99.90;;;;;;4846942;29;20060;-87
2021/12/15 01:41:30;;;;;;;89.05;27.02;;;8.90;99.90;;;;;;4846861;29;20056;-87
2021/12/15 01:46:56;;;;;;;73.38;24.20;;;8.90;99.90;;;;;;4863305;29;20057;-87
2021/12/15 01:49:24;;;;;;;68.45;22.73;;;8.90;99.90;;;;;;4846599;29;20136;-87
2021/12/15 01:51:51;;;;;;;84.30;23.50;;;8.90;99.90;;;;;;4863057;29;20049;-87
2021/12/15 01:54:18;;;;;;;68.30;22.67;;;8.90;99.90;;;;;;4847033;29;20571;-86
2021/12/15 01:56:45;;;;;;;79.45;23.58;;;8.90;99.90;;;;;;4846709;29;20061;-87
2021/12/15 01:59:12;;;;;;;69.90;24.13;;;8.90;99.90;;;;;;4846840;29;20050;-86
2021/12/15 02:01:38;;;;;;;74.75;23.08;;;8.90;99.90;;;;;;4846301;29;20137;-87
2021/12/15 02:04:04;;;;;;;79.85;23.38;;;8.90;99.90;;;;;;4846934;29;20124;-87
2021/12/15 02:06:30;;;;;;;72.65;24.73;;;8.90;99.90;;;;;;4846560;29;20622;-86
2021/12/15 02:08:56;;;;;;;98.10;24.33;;;9.00;99.90;;;;;;4846442;29;20125;-87
2021/12/15 02:11:24;;;;;;;83.35;26.58;;;8.90;99.90;;;;;;4846352;29;20139;-87
2021/12/15 02:13:50;;;;;;;70.38;23.70;;;8.90;99.90;;;;;;4846014;29;20438;-86
2021/12/15 02:16:16;;;;;;;68.57;22.27;;;9.00;99.90;;;;;;4846071;29;20092;-86
2021/12/15 02:18:44;;;;;;;85.85;24.13;;;9.00;99.90;;;;;;4846335;29;20050;-87
2021/12/15 02:21:19;;;;;;;79.50;25.65;;;9.00;99.90;;;;;;4845945;29;20053;-86
2021/12/15 02:23:51;;;;;;;86.22;25.75;;;9.00;99.90;;;;;;4846297;29;20525;-87
2021/12/15 02:26:27;;;;;;;81.55;27.05;;;9.00;99.90;;;;;;4846771;29;20053;-86
2021/12/15 02:28:56;;;;;;;94.03;25.77;;;9.00;99.90;;;;;;4846201;29;20106;-86
2021/12/15 02:31:56;;;;;;;86.50;25.55;;;9.00;99.90;;;;;;4846091;29;20155;-86
2021/12/15 02:39:28;;;;;;;81.65;24.85;;;9.00;99.90;;;;;;4845636;29;20068;-86
2021/12/15 02:41:54;;;;;;;88.47;25.15;;;9.00;99.90;;;;;;4845709;29;20413;-86
2021/12/15 02:44:22;;;;;;;79.55;23.83;;;9.00;99.90;;;;;;4845982;29;20109;-87
2021/12/15 02:46:50;;;;;;;89.97;26.75;;;9.00;99.90;;;;;;4845979;29;20085;-87
2021/12/15 02:49:18;;;;;;;91.28;25.52;;;9.00;99.90;;;;;;4845938;29;20132;-87
2021/12/15 02:51:46;;;;;;;86.90;26.50;;;9.00;99.90;;;;;;4846059;29;20136;-87
2021/12/15 02:54:14;;;;;;;92.32;26.48;;;9.00;99.90;;;;;;4845515;29;20053;-87
2021/12/15 02:56:42;;;;;;;89.28;26.92;;;9.00;99.90;;;;;;4844989;29;20053;-87
2021/12/15 02:59:10;;;;;;;106.35;27.55;;;9.00;99.90;;;;;;4862086;29;20061;-87
2021/12/15 03:02:09;;;;;;;89.97;25.77;;;9.00;99.90;;;;;;4845447;29;20049;-86
2021/12/15 03:05:02;;;;;;;92.88;26.48;;;8.90;99.90;;;;;;4845380;29;20053;-86
2021/12/15 03:07:45;;;;;;;94.68;28.40;;;8.90;99.90;;;;;;4845599;29;20083;-86
2021/12/15 03:15:44;;;;;;;87.13;28.27;;;8.90;99.90;;;;;;4845536;29;20405;-87
2021/12/15 03:18:24;;;;;;;81.15;27.30;;;8.90;99.90;;;;;;4845550;29;20058;-87
2021/12/15 03:20:59;;;;;;;89.03;29.60;;;8.90;99.90;;;;;;4844972;29;20046;-87
2021/12/15 03:23:31;;;;;;;86.47;28.48;;;8.90;99.90;;;;;;4861952;29;20049;-86
2021/12/15 03:25:58;;;;;;;101.60;28.40;;;8.90;99.90;;;;;;4845421;29;20053;-86
2021/12/15 03:36:39;;;;;;;89.47;28.30;;;8.90;99.90;;;;;;4861596;29;20121;-86
2021/12/15 03:39:08;;;;;;;84.80;27.40;;;8.80;99.90;;;;;;4844963;29;20045;-87
2021/12/15 03:41:36;;;;;;;96.50;30.05;;;8.90;99.90;;;;;;4861473;29;20049;-87
2021/12/15 03:44:05;;;;;;;103.65;31.65;;;8.80;99.90;;;;;;4845199;29;20054;-87
2021/12/15 03:46:31;;;;;;;97.13;29.27;;;8.90;99.90;;;;;;4845009;29;20049;-87
2021/12/15 03:48:58;;;;;;;99.93;29.67;;;8.90;99.90;;;;;;4844738;29;20058;-86
2021/12/15 03:51:23;;;;;;;93.70;29.73;;;8.90;99.90;;;;;;4844752;29;20082;-87
2021/12/15 03:53:49;;;;;;;100.57;29.27;;;8.80;99.90;;;;;;4844496;29;20087;-86
2021/12/15 03:56:16;;;;;;;108.70;30.92;;;8.80;99.90;;;;;;4844582;29;20057;-86
2021/12/15 03:58:43;;;;;;;94.43;29.27;;;8.90;99.90;;;;;;4844606;29;20041;-86
2021/12/15 04:01:13;;;;;;;103.10;31.10;;;8.90;99.90;;;;;;4844793;29;20057;-86
2021/12/15 04:03:42;;;;;;;104.65;33.65;;;8.90;99.90;;;;;;4844840;29;20046;-87
2021/12/15 04:06:16;;;;;;;96.35;29.45;;;8.80;99.90;;;;;;4844678;29;20057;-86
2021/12/15 04:08:42;;;;;;;95.40;32.03;;;8.90;99.90;;;;;;4847573;29;20393;-86
2021/12/15 04:11:12;;;;;;;101.75;31.33;;;8.90;99.90;;;;;;4848396;29;20058;-86
2021/12/15 04:13:40;;;;;;;109.30;31.92;;;8.80;99.90;;;;;;4848574;29;20061;-86
2021/12/15 04:16:09;;;;;;;100.82;30.88;;;8.80;99.90;;;;;;4848562;29;20379;-86
2021/12/15 04:18:39;;;;;;;96.78;30.83;;;8.80;99.90;;;;;;4848613;29;20140;-86
2021/12/15 04:21:05;;;;;;;100.38;30.63;;;8.80;99.90;;;;;;4865051;29;20042;-86
2021/12/15 04:23:32;;;;;;;92.22;29.73;;;8.80;99.90;;;;;;4848072;29;20451;-86
2021/12/15 04:25:59;;;;;;;98.63;32.28;;;8.80;99.90;;;;;;4848001;29;20054;-86
2021/12/15 04:28:35;;;;;;;94.18;31.77;;;8.80;99.90;;;;;;4848359;29;20489;-86
2021/12/15 04:31:10;;;;;;;82.55;27.80;;;8.70;99.90;;;;;;4848335;29;20067;-87
2021/12/15 04:33:59;;;;;;;97.25;29.65;;;8.70;99.90;;;;;;4848088;29;20042;-87
2021/12/15 04:36:31;;;;;;;95.82;29.52;;;8.70;99.90;;;;;;4848608;29;20057;-86
2021/12/15 04:38:58;;;;;;;95.63;29.08;;;8.80;99.90;;;;;;4844779;29;20513;-86
2021/12/15 04:41:25;;;;;;;93.95;28.10;;;8.80;99.90;;;;;;4844777;29;20459;-86
2021/12/15 04:44:00;;;;;;;94.53;28.08;;;8.70;99.90;;;;;;4845827;29;20042;-87
2021/12/15 04:46:35;;;;;;;90.20;30.33;;;8.80;99.90;;;;;;4844898;29;20044;-87
2021/12/15 04:49:06;;;;;;;95.00;28.52;;;8.70;99.90;;;;;;4844914;29;20110;-87
2021/12/15 04:51:33;;;;;;;88.15;29.40;;;8.70;99.90;;;;;;4844887;29;20506;-87
2021/12/15 04:53:59;;;;;;;90.45;28.70;;;8.70;99.90;;;;;;4844644;29;20489;-87
2021/12/15 04:56:25;;;;;;;98.50;28.83;;;8.70;99.90;;;;;;4844649;29;20084;-87
2021/12/15 04:58:53;;;;;;;85.30;27.83;;;8.70;99.90;;;;;;4844691;29;20101;-87
2021/12/15 05:01:19;;;;;;;92.47;26.73;;;8.70;99.90;;;;;;4844658;29;20073;-87
2021/12/15 05:03:45;;;;;;;105.80;29.83;;;8.70;99.90;;;;;;4844410;29;20091;-87
2021/12/15 05:06:11;;;;;;;92.85;27.50;;;8.70;99.90;;;;;;4844684;29;20050;-87
2021/12/15 05:08:39;;;;;;;91.75;29.63;;;8.70;99.90;;;;;;4845586;29;20516;-86
2021/12/15 05:11:06;;;;;;;85.10;28.45;;;8.70;99.90;;;;;;4844681;29;20081;-86
2021/12/15 05:13:32;;;;;;;94.97;28.05;;;8.70;99.90;;;;;;4844887;29;20085;-86
2021/12/15 05:15:59;;;;;;;87.40;30.20;;;8.70;99.90;;;;;;4844443;29;20050;-86
2021/12/15 05:18:25;;;;;;;82.50;27.33;;;8.70;99.90;;;;;;4843913;29;20077;-86
2021/12/15 05:20:53;;;;;;;91.20;28.63;;;8.70;99.90;;;;;;4844247;29;20058;-86
2021/12/15 05:23:19;;;;;;;99.47;30.85;;;8.70;99.90;;;;;;4844108;29;20118;-86
2021/12/15 05:25:47;;;;;;;95.80;27.67;;;8.70;99.90;;;;;;4843987;29;20064;-86
2021/12/15 05:28:14;;;;;;;90.80;28.77;;;8.70;99.90;;;;;;4844209;29;20113;-86
2021/12/15 05:30:40;;;;;;;83.00;28.27;;;8.80;99.90;;;;;;4845361;29;20050;-86
2021/12/15 05:33:06;;;;;;;88.15;28.23;;;8.70;99.90;;;;;;4843977;29;20154;-86
2021/12/15 05:35:33;;;;;;;84.07;26.08;;;8.70;99.90;;;;;;4843957;29;20086;-86
2021/12/15 05:38:00;;;;;;;90.35;28.05;;;8.70;99.90;;;;;;4843831;29;20066;-87
2021/12/15 05:40:28;;;;;;;90.97;30.45;;;8.70;99.90;;;;;;4845206;29;20061;-87
2021/12/15 05:42:56;;;;;;;84.85;26.42;;;8.70;99.90;;;;;;4843899;29;20057;-86
2021/12/15 05:45:27;;;;;;;82.65;27.55;;;8.70;99.90;;;;;;4843983;29;20224;-86
2021/12/15 05:47:53;;;;;;;92.63;30.77;;;8.70;99.90;;;;;;4843736;29;20054;-86
2021/12/15 05:50:20;;;;;;;100.57;28.55;;;8.70;99.90;;;;;;4844863;29;20057;-86
2021/12/15 05:52:46;;;;;;;99.32;28.23;;;8.70;99.90;;;;;;4843639;29;20497;-86
2021/12/15 05:55:13;;;;;;;103.30;31.10;;;8.70;99.90;;;;;;4844765;29;20099;-86
2021/12/15 05:57:39;;;;;;;92.82;28.70;;;8.70;99.90;;;;;;4843412;29;20386;-86
2021/12/15 06:00:09;;;;;;;99.05;28.65;;;8.70;99.90;;;;;;4843581;29;20546;-86
2021/12/15 06:02:35;;;;;;;95.15;29.05;;;8.70;99.90;;;;;;4843733;29;20053;-86
2021/12/15 06:05:01;;;;;;;85.72;26.85;;;8.70;99.90;;;;;;4843660;29;20106;-86
2021/12/15 06:07:27;;;;;;;99.85;30.00;;;8.70;99.90;;;;;;4844497;29;20113;-86
2021/12/15 06:09:52;;;;;;;84.93;27.50;;;8.70;99.90;;;;;;4843181;29;20049;-86
2021/12/15 06:12:18;;;;;;;102.00;29.02;;;8.70;99.90;;;;;;4843510;29;20058;-86
2021/12/15 06:14:44;;;;;;;87.65;26.92;;;8.70;99.90;;;;;;4843271;29;20125;-86
2021/12/15 06:17:12;;;;;;;85.97;30.02;;;8.70;99.90;;;;;;4843128;29;20053;-87
2021/12/15 06:19:38;;;;;;;92.10;29.13;;;8.70;99.90;;;;;;4844167;29;20049;-87
2021/12/15 06:22:05;;;;;;;94.65;26.90;;;8.70;99.90;;;;;;4843220;29;20057;-87
2021/12/15 06:24:31;;;;;;;80.20;27.13;;;8.70;99.90;;;;;;4843202;29;20042;-87
2021/12/15 06:27:04;;;;;;;81.40;27.85;;;8.70;99.90;;;;;;4843249;29;20054;-87
2021/12/15 06:29:29;;;;;;;77.07;26.80;;;8.60;99.90;;;;;;4842394;29;20054;-87
2021/12/15 06:31:56;;;;;;;91.78;26.58;;;8.70;99.90;;;;;;4842670;29;20057;-87
2021/12/15 06:34:22;;;;;;;82.63;27.35;;;8.70;99.90;;;;;;4844007;29;20061;-87
2021/12/15 06:36:48;;;;;;;85.80;27.55;;;8.70;99.90;;;;;;4844663;29;20442;-87
2021/12/15 06:39:14;;;;;;;86.60;27.25;;;8.70;99.90;;;;;;4846176;29;20108;-86
2021/12/15 06:41:41;;;;;;;79.78;25.58;;;8.70;99.90;;;;;;4845751;29;20081;-86
2021/12/15 06:44:07;;;;;;;91.38;26.90;;;8.70;99.90;;;;;;4845754;29;20056;-86
2021/12/15 07:00:19;;;;;;;82.13;26.10;;;8.80;99.90;;;;;;4830798;29;20058;-87
2021/12/15 07:02:45;;;;;;;82.95;25.65;;;8.80;99.90;;;;;;4845551;29;20081;-87
2021/12/15 07:05:11;;;;;;;88.60;25.95;;;8.80;99.90;;;;;;4845393;29;20045;-86
2021/12/15 07:07:39;;;;;;;74.70;25.48;;;8.80;99.90;;;;;;4845505;29;20498;-86
2021/12/15 07:10:07;;;;;;;77.85;24.65;;;8.80;99.90;;;;;;4845286;29;20049;-86
2021/12/15 07:12:33;;;;;;;74.53;24.98;;;8.80;99.90;;;;;;4845194;29;20131;-86
2021/12/15 07:14:59;;;;;;;89.18;26.45;;;8.90;99.90;;;;;;4862042;29;20057;-87
2021/12/15 07:17:27;;;;;;;71.28;25.58;;;8.80;99.90;;;;;;4845473;29;20413;-86
2021/12/15 07:22:37;;;;;;;68.57;24.27;;;8.90;99.90;;;;;;4860659;29;20126;-86
2021/12/15 07:25:07;;;;;;;63.83;23.02;;;8.90;99.90;;;;;;4845244;29;20052;-86
2021/12/15 07:27:33;;;;;;;76.07;24.45;;;8.90;99.90;;;;;;4845447;29;20401;-87
2021/12/15 07:29:59;;;;;;;58.05;23.25;;;8.90;99.90;;;;;;4861702;29;20049;-85
2021/12/15 07:32:25;;;;;;;67.60;23.42;;;8.90;99.90;;;;;;4845216;29;20054;-86
2021/12/15 07:34:50;;;;;;;67.70;22.55;;;8.90;99.90;;;;;;4861847;29;20048;-86
2021/12/15 07:37:16;;;;;;;55.20;20.65;;;9.00;99.90;;;;;;4844643;29;20514;-86
2021/12/15 07:39:53;;;;;;;59.45;21.23;;;9.00;99.90;;;;;;4845231;29;20069;-86
2021/12/15 07:42:28;;;;;;;63.85;21.80;;;9.00;99.90;;;;;;4845199;29;20543;-87
2021/12/15 07:44:54;;;;;;;58.28;22.50;;;9.00;99.90;;;;;;4845131;29;20041;-86
2021/12/15 07:47:22;;;;;;;67.53;21.05;;;9.00;99.90;;;;;;4861874;29;20068;-87
2021/12/15 07:49:48;;;;;;;54.85;22.23;;;9.00;99.90;;;;;;4844685;29;20053;-86
2021/12/15 07:52:14;;;;;;;61.10;20.95;;;9.00;99.90;;;;;;4861079;29;20049;-85
2021/12/15 07:54:40;;;;;;;62.50;21.67;;;9.00;99.90;;;;;;4844067;29;20049;-85
2021/12/15 07:57:16;;;;;;;59.05;19.98;;;9.00;99.90;;;;;;4844782;29;20092;-87
2021/12/15 07:59:42;;;;;;;59.45;20.15;;;9.00;99.90;;;;;;4844339;29;20455;-87
2021/12/15 08:02:13;;;;;;;59.03;19.30;;;9.10;99.90;;;;;;4844463;29;20050;-87
2021/12/15 08:04:48;;;;;;;58.67;20.25;;;9.00;99.90;;;;;;4844307;29;20053;-87
2021/12/15 08:07:15;;;;;;;49.22;18.13;;;9.10;99.90;;;;;;4844012;29;20053;-87
2021/12/15 08:10:03;;;;;;;40.72;18.92;;;9.10;99.90;;;;;;4844296;29;20133;-89
2021/12/15 08:12:32;;;;;;;42.85;17.10;;;9.00;99.90;;;;;;4844706;29;20128;-88
2021/12/15 08:14:57;;;;;;;46.63;16.45;;;9.10;99.90;;;;;;4844544;29;20056;-87
2021/12/15 08:17:23;;;;;;;41.40;17.45;;;9.10;99.90;;;;;;4843217;29;20057;-86
2021/12/15 08:19:50;;;;;;;40.70;15.50;;;9.10;99.90;;;;;;4843872;29;20090;-87
2021/12/15 08:22:16;;;;;;;43.05;15.27;;;9.10;99.90;;;;;;4844259;29;20587;-86
2021/12/15 08:24:45;;;;;;;36.60;14.45;;;9.00;99.90;;;;;;4844268;29;20112;-89
2021/12/15 08:27:11;;;;;;;44.00;13.93;;;9.00;99.90;;;;;;4844547;29;20424;-88
2021/12/15 08:29:37;;;;;;;39.35;12.88;;;9.00;99.90;;;;;;4844401;29;20081;-90
2021/12/15 08:32:03;;;;;;;35.17;12.60;;;9.00;99.90;;;;;;4844330;29;20235;-91
2021/12/15 08:34:29;;;;;;;29.95;11.60;;;9.00;99.90;;;;;;4844339;29;20143;-91
2021/12/15 08:36:55;;;;;;;33.80;11.48;;;8.90;99.90;;;;;;4844094;29;20462;-89
2021/12/15 08:39:21;;;;;;;30.00;11.52;;;8.90;99.90;;;;;;4844380;29;20054;-91
2021/12/15 08:41:55;;;;;;;30.88;12.15;;;8.90;99.90;;;;;;4844087;29;20059;-88
2021/12/15 08:44:21;;;;;;;30.52;9.43;;;8.90;99.90;;;;;;4844424;29;20068;-90
2021/12/15 08:46:47;;;;;;;28.75;11.07;;;8.80;99.90;;;;;;4843882;29;20482;-87
2021/12/15 08:49:18;;;;;;;24.17;10.60;;;8.80;99.90;;;;;;4843837;29;20435;-91
2021/12/15 08:51:46;;;;;;;27.95;9.48;;;8.90;99.90;;;;;;4843990;29;20045;-88
2021/12/15 08:54:21;;;;;;;26.45;10.13;;;8.80;99.90;;;;;;4862637;29;20049;-87
2021/12/15 08:57:11;;;;;;;27.85;9.68;;;8.80;99.90;;;;;;4847555;29;20058;-88
2021/12/15 08:59:37;;;;;;;30.05;11.07;;;8.80;99.90;;;;;;4847034;29;20405;-88
2021/12/15 09:02:10;;;;;;;28.15;10.10;;;8.80;99.90;;;;;;4847361;29;20064;-91
2021/12/15 09:05:11;;;;;;;23.48;8.70;;;8.90;99.90;;;;;;4847025;29;20054;-88
2021/12/15 09:07:54;;;;;;;;;;;;;;;;;;;;;
2021/12/15 09:10:39;;;;;;;;;;;;;;;;;;;;;
2021/12/15 09:13:32;;;;;;;;;;;;;;;;;;;;;
2021/12/15 09:16:22;;;;;;;;;;;;;;;;;;;;;
2021/12/15 09:19:00;;;;;;;26.98;8.98;;;8.90;99.90;;;;;;4846972;29;20061;-90
2021/12/15 09:22:11;;;;;;;22.33;9.93;;;8.90;99.90;;;;;;4847001;29;20058;-91
2021/12/15 09:24:51;;;;;;;26.63;10.07;;;8.90;99.90;;;;;;4846870;29;20052;-91
2021/12/15 09:28:02;;;;;;;;;;;;;;;;;;;;;
2021/12/15 09:34:36;;;;;;;;;;;;;;;;;;;;;
2021/12/15 09:37:18;;;;;;;31.13;11.13;;;8.90;99.90;;;;;;4841074;29;20481;-91
2021/12/15 09:39:55;;;;;;;34.75;12.32;;;8.90;99.90;;;;;;4862181;29;20053;-90
2021/12/15 09:43:00;;;;;;;;;;;;;;;;;;;;;
2021/12/15 09:45:53;;;;;;;28.75;11.73;;;8.90;99.90;;;;;;4846350;29;20046;-91
2021/12/15 10:03:04;;;;;;;33.88;13.52;;;8.90;99.90;;;;;;4846413;29;20056;-91
2021/12/15 10:06:22;;;;;;;34.80;14.32;;;9.00;99.90;;;;;;4846275;29;20049;-91
2021/12/15 10:25:57;;;;;;;;;;;9.00;99.90;;;;;;4727402;30;20114;-93
2021/12/15 10:28:26;;;;;;;23.38;8.73;;;9.00;99.90;;;;;;4776021;29;19921;-85
2021/12/15 10:31:22;;;;;;;21.60;8.05;;;9.10;99.90;;;;;;4757403;30;20668;-96
2021/12/15 10:37:04;;;;;;;20.23;7.18;;;9.30;99.90;;;;;;5946471;23;20895;31
2021/12/15 10:40:12;;;;;;;14.50;6.47;;;9.40;99.90;;;;;;4789502;29;20090;-95
2021/12/15 10:47:03;;;;;;;13.07;4.50;;;9.50;99.90;;;;;;4856865;23;20057;-93
2021/12/15 10:55:53;;;;;;;10.65;3.83;;;9.40;99.90;;;;;;4841948;29;20110;-89
2021/12/15 10:58:41;;;;;;;9.23;4.32;;;9.40;99.90;;;;;;4826972;29;20058;-89
2021/12/15 11:01:35;;;;;;;9.68;4.25;;;9.40;99.90;;;;;;4827022;29;20053;-91
2021/12/15 11:04:12;;;;;;;11.60;4.53;;;9.40;99.90;;;;;;4812583;29;20431;-91
2021/12/15 11:06:39;;;;;;;12.32;4.13;;;9.30;99.90;;;;;;4827437;29;20060;-91
2021/12/15 11:09:21;;;;;;;9.10;3.60;;;9.30;99.90;;;;;;4827380;29;20114;-92
2021/12/15 11:11:59;;;;;;;11.70;4.40;;;9.30;99.90;;;;;;4827338;29;20054;-90
2021/12/15 11:14:41;;;;;;;;;;;;;;;;;;;;;
2021/12/15 11:27:51;;;;;;;8.95;4.03;;;9.20;99.90;;;;;;5210200;23;20049;-89
2021/12/15 11:30:23;;;;;;;12.18;4.10;;;9.20;99.90;;;;;;4845712;29;20049;-89
2021/12/15 11:33:08;;;;;;;11.77;3.80;;;9.20;99.90;;;;;;4845151;29;20537;-94
2021/12/15 11:35:39;;;;;;;10.20;3.60;;;9.20;99.90;;;;;;4848164;29;20302;-91
2021/12/15 11:38:13;;;;;;;12.20;3.90;;;9.20;99.90;;;;;;4844765;29;20507;-91
2021/12/15 11:40:54;;;;;;;8.65;3.55;;;9.20;99.90;;;;;;4846325;29;20049;-95
2021/12/15 11:51:42;;;;;;;;;;;;;;;;;;;;;
2021/12/15 12:12:38;;;;;;;8.70;3.30;;;9.50;99.90;;;;;;5090775;27;20452;-91
2021/12/15 12:15:53;;;;;;;;;;;;;;;;;;;;;
2021/12/15 12:22:19;;;;;;;;;;;;;;;;;;;;;
2021/12/15 12:32:49;;;;;;;;;;;;;;;;;;;;;
2021/12/15 12:40:57;;;;;;;11.85;3.00;;;9.80;99.90;;;;;;4520339;22;20061;-85
2021/12/15 12:43:29;;;;;;;6.50;2.53;;;9.80;99.90;;;;;;5012110;28;20045;-87
2021/12/15 12:46:07;;;;;;;6.82;2.92;;;9.90;99.90;;;;;;5011149;28;20089;-95
2021/12/15 13:00:44;;;;;;;4.25;2.00;;;9.90;99.90;;;;;;5013652;28;20050;-96
2021/12/15 13:03:14;;;;;;;6.05;1.90;;;9.90;99.90;;;;;;5013395;28;20791;-96
2021/12/15 13:06:12;;;;;;;8.30;1.83;;;9.90;99.90;;;;;;5051709;23;20050;-92
2021/12/15 13:08:50;;;;;;;4.20;2.10;;;9.90;99.90;;;;;;5009472;28;20141;-93
2021/12/15 13:11:18;;;;;;;6.00;2.10;;;9.90;99.90;;;;;;5007643;28;20100;-93
2021/12/15 13:14:09;;;;;;;4.30;1.85;;;9.80;99.90;;;;;;4987860;28;20046;-93
2021/12/15 13:16:38;;;;;;;7.00;2.15;;;9.80;99.90;;;;;;4994883;28;20058;-89
2021/12/15 13:22:30;;;;;;;;;;;;;;;;;;;;;
2021/12/15 13:45:33;;;;;;;6.57;2.55;;;9.70;99.90;;;;;;5066995;22;20127;-92
2021/12/15 13:48:06;;;;;;;7.88;2.63;;;9.70;99.90;;;;;;5038347;28;20499;-92
2021/12/15 13:54:48;;;;;;;5.65;2.35;;;9.50;99.90;;;;;;4887798;29;20396;-95
2021/12/15 14:01:18;;;;;;;6.95;1.80;;;9.30;99.90;;;;;;4878846;29;20068;-91
2021/12/15 14:04:11;;;;;;;5.50;1.60;;;9.20;99.90;;;;;;4882924;29;20539;-94
2021/12/15 14:07:47;;;;;;;;;;;;;;;;;;;;;
2021/12/15 14:16:51;;;;;;;6.30;1.80;;;9.00;99.90;;;;;;5072581;28;20488;-92
2021/12/15 14:19:26;;;;;;;6.78;1.98;;;9.00;99.90;;;;;;5057502;28;20049;-94
2021/12/15 14:22:07;;;;;;;5.55;2.10;;;9.00;99.90;;;;;;5057197;28;20078;-94
2021/12/15 14:24:40;;;;;;;11.68;3.00;;;9.00;99.90;;;;;;5057344;28;20044;-93
2021/12/15 14:27:11;;;;;;;5.47;2.03;;;9.00;99.90;;;;;;5057483;28;20579;-94
2021/12/15 14:29:42;;;;;;;6.53;2.58;;;9.00;99.90;;;;;;5057226;28;20178;-93
2021/12/15 14:32:10;;;;;;;4.20;2.17;;;9.00;99.90;;;;;;5057271;28;20049;-93
2021/12/15 14:34:43;;;;;;;6.90;2.65;;;9.00;99.90;;;;;;5057098;28;20119;-94
2021/12/15 14:37:20;;;;;;;10.70;2.17;;;9.00;99.90;;;;;;5057149;28;20041;-93
2021/12/15 14:40:15;;;;;;;7.28;2.13;;;9.00;99.90;;;;;;5056983;28;20044;-94
2021/12/15 14:42:46;;;;;;;5.43;2.40;;;9.00;99.90;;;;;;5057283;28;20185;-93
2021/12/15 14:45:14;;;;;;;11.73;2.55;;;9.00;99.90;;;;;;5056881;28;20111;-92
2021/12/15 14:47:46;;;;;;;10.10;2.50;;;9.00;99.90;;;;;;5056662;28;20044;-93
2021/12/15 14:50:27;;;;;;;6.13;2.40;;;9.00;99.90;;;;;;5056924;28;20048;-94
2021/12/15 14:52:57;;;;;;;9.13;2.42;;;9.00;99.90;;;;;;5057085;28;20048;-93
2021/12/15 14:55:50;;;;;;;8.88;2.60;;;9.00;99.90;;;;;;5056747;28;20056;-94
2021/12/15 14:58:36;;;;;;;8.93;2.67;;;9.00;99.90;;;;;;5042214;28;20138;-93
2021/12/15 15:01:03;;;;;;;7.03;2.50;;;9.00;99.90;;;;;;5041943;28;20131;-92
2021/12/15 15:04:05;;;;;;;15.05;2.78;;;9.00;99.90;;;;;;5057364;28;20488;-91
2021/12/15 15:06:34;;;;;;;7.82;2.40;;;8.90;99.90;;;;;;5056785;28;20490;-91
2021/12/15 15:12:06;;;;;;;5.80;2.30;;;8.90;99.90;;;;;;5139061;22;20049;-93
2021/12/15 15:14:37;;;;;;;6.13;2.42;;;8.90;99.90;;;;;;5016692;28;20143;-96
2021/12/15 15:17:19;;;;;;;9.50;3.17;;;8.90;99.90;;;;;;5019524;28;20088;-92
2021/12/15 15:19:54;;;;;;;7.15;2.45;;;8.80;99.90;;;;;;5016403;28;20481;-86
2021/12/15 15:44:07;;;;;;;9.13;3.00;;;8.50;99.90;;;;;;5726739;22;20973;-91
2021/12/15 16:18:20;;;;;;;;;;;;;;;;;;;;;
2021/12/15 16:24:42;;;;;;;7.35;2.42;;;7.80;99.90;;;;;;4856388;29;20113;-90
2021/12/15 16:31:53;;;;;;;8.30;2.30;;;7.60;99.90;;;;;;4822735;29;20081;-89
2021/12/15 16:34:43;;;;;;;;;;;;;;;;;;;;;
2021/12/15 16:41:15;;;;;;;8.48;2.72;;;7.50;99.90;;;;;;4825500;29;20060;-90
2021/12/15 16:44:21;;;;;;;;;;;;;;;;;;;;;
2021/12/15 16:47:33;;;;;;;4.72;2.30;;;7.40;99.90;;;;;;4857149;29;20060;-89
2021/12/15 16:51:01;;;;;;;;;;;;;;;;;;;;;
2021/12/15 17:01:11;;;;;;;8.23;2.58;;;7.10;99.90;;;;;;4800535;29;20054;-88
2021/12/15 17:04:08;;;;;;;7.53;2.63;;;7.10;99.90;;;;;;4828772;29;20487;-89
2021/12/15 17:10:46;;;;;;;;;;;;;;;;;;;;;
2021/12/15 17:16:37;;;;;;;9.60;3.00;;;6.90;99.90;;;;;;4856615;29;20084;-87
2021/12/15 17:23:06;;;;;;;6.70;3.03;;;6.80;99.90;;;;;;4848943;29;20064;-89
2021/12/15 17:26:32;;;;;;;5.25;2.85;;;6.80;99.90;;;;;;4861586;29;20451;-89
2021/12/15 17:29:35;;;;;;;;;;;;;;;;;;;;;
2021/12/15 17:54:43;;;;;;;8.43;3.97;;;6.50;99.90;;;;;;4879917;29;20053;-88
2021/12/15 17:57:52;;;;;;;7.75;3.92;;;6.50;99.90;;;;;;4865120;29;20211;-88
2021/12/15 18:03:41;;;;;;;13.20;4.05;;;6.50;99.90;;;;;;4858604;29;20060;-88
2021/12/15 18:07:02;;;;;;;;;;;;;;;;;;;;;
2021/12/15 18:09:35;;;;;;;10.23;4.20;;;6.30;99.90;;;;;;4860016;29;20060;-88
2021/12/15 18:12:30;;;;;;;10.60;4.60;;;6.30;99.90;;;;;;4864584;29;20049;-88
2021/12/15 18:18:26;;;;;;;7.85;4.50;;;6.30;99.90;;;;;;4861219;29;20050;-88
2021/12/15 18:24:05;;;;;;;8.82;4.05;;;6.20;99.90;;;;;;4852953;29;20123;-88
2021/12/15 18:26:39;;;;;;;11.88;4.15;;;6.20;99.90;;;;;;4847415;29;20042;-88
2021/12/15 18:29:34;;;;;;;;;;;;;;;;;;;;;
2021/12/15 18:35:24;;;;;;;;;;;;;;;;;;;;;
2021/12/15 18:37:55;;;;;;;12.27;4.43;;;6.10;99.90;;;;;;4850331;29;20094;-88
2021/12/15 18:40:23;;;;;;;14.95;5.60;;;6.10;99.90;;;;;;4864469;29;20132;-88
2021/12/15 18:43:56;;;;;;;;;;;;;;;;;;;;;
2021/12/15 18:46:23;;;;;;;15.60;5.63;;;6.00;99.90;;;;;;4832675;29;20057;-89
2021/12/15 18:59:02;;;;;;;18.40;6.38;;;6.00;99.90;;;;;;5018294;23;20111;-89
2021/12/15 19:01:41;;;;;;;11.55;5.68;;;6.00;99.90;;;;;;4863530;29;20528;-88
2021/12/15 19:04:34;;;;;;;14.55;5.13;;;6.00;99.90;;;;;;4864239;29;20131;-89
2021/12/15 19:07:01;;;;;;;9.65;5.15;;;6.00;99.90;;;;;;4863781;29;20049;-90
2021/12/15 19:09:32;;;;;;;14.95;5.97;;;6.00;99.90;;;;;;4863562;29;20149;-91
2021/12/15 19:12:18;;;;;;;9.93;5.38;;;6.00;99.90;;;;;;4861113;29;20490;-93
2021/12/15 19:14:46;;;;;;;11.73;5.40;;;6.00;99.90;;;;;;4846927;29;20038;-90
2021/12/15 19:17:14;;;;;;;17.35;6.70;;;5.90;99.90;;;;;;4845605;29;20136;-90
2021/12/15 19:19:45;;;;;;;11.43;5.63;;;5.90;99.90;;;;;;4845475;29;20057;-91
2021/12/15 19:22:20;;;;;;;16.63;5.47;;;5.90;99.90;;;;;;4857690;29;20053;-90